Time;durP1;ratioP1;P1;durP2;ratioP2;P2;SDS_P1;SDS_P2;PMS_P1;PMS_P2;Temp;Humidity;BMP_temperature;BMP_pressure;BME280_temperature;BME280_humidity;BME280_pressure;Samples;Min_cycle;Max_cycle;Signal;HPM_P1;HPM_P2
2023/10/04 00:00:15;;;;;;;5.38;2.25;;;;;;;12.68;100.00;102465.81;5089901;28;20024;-36
2023/10/04 00:02:49;;;;;;;9.38;2.97;;;;;;;12.66;100.00;102470.63;5089947;28;20052;-36
2023/10/04 00:05:19;;;;;;;10.15;2.33;;;;;;;12.59;100.00;102465.19;5090241;28;20023;-36
2023/10/04 00:07:50;;;;;;;6.50;2.10;;;;;;;12.66;100.00;102477.94;5090417;28;20024;-36
2023/10/04 00:10:17;;;;;;;6.55;2.03;;;;;;;12.63;100.00;102477.28;5075450;28;20503;-36
2023/10/04 00:12:43;;;;;;;7.47;1.98;;;;;;;12.66;100.00;102477.94;5076550;28;20085;-36
2023/10/04 00:15:12;;;;;;;5.63;1.92;;;;;;;12.68;100.00;102478.56;5076929;28;20020;-36
2023/10/04 00:17:41;;;;;;;8.05;2.33;;;;;;;12.66;100.00;102477.94;5076394;28;20111;-36
2023/10/04 00:20:13;;;;;;;10.60;2.22;;;;;;;12.65;100.00;102477.09;5075797;28;20024;-36
2023/10/04 00:22:39;;;;;;;10.98;2.38;;;;;;;12.67;100.00;102474.19;5076087;28;20041;-36
2023/10/04 00:25:11;;;;;;;7.75;2.53;;;;;;;12.62;100.00;102477.50;5075987;28;20032;-36
2023/10/04 00:27:37;;;;;;;7.07;2.60;;;;;;;12.65;100.00;102481.72;5076584;28;20070;-36
2023/10/04 00:30:06;;;;;;;8.93;2.67;;;;;;;12.63;100.00;102481.88;5075904;28;20021;-36
2023/10/04 00:32:31;;;;;;;9.68;2.63;;;;;;;12.62;100.00;102474.78;5075652;28;20111;-36
2023/10/04 00:34:57;;;;;;;10.93;2.30;;;;;;;12.62;100.00;102481.06;5076168;28;20116;-36
2023/10/04 00:37:24;;;;;;;7.00;2.00;;;;;;;12.62;100.00;102486.47;5075767;28;20111;-36
2023/10/04 00:39:49;;;;;;;8.85;2.28;;;;;;;12.63;100.00;102481.88;5076259;28;20036;-36
2023/10/04 00:42:17;;;;;;;6.45;2.10;;;;;;;12.61;100.00;102483.97;5076035;28;20029;-36
2023/10/04 00:44:43;;;;;;;5.88;2.42;;;;;;;12.61;100.00;102487.53;5075923;28;20025;-36
2023/10/04 00:47:09;;;;;;;6.38;2.33;;;;;;;12.59;100.00;102489.63;5075911;28;20396;-36
2023/10/04 00:49:35;;;;;;;6.00;2.70;;;;;;;12.57;100.00;102488.13;5076084;28;20035;-36
2023/10/04 00:52:02;;;;;;;6.63;2.20;;;;;;;12.59;100.00;102494.19;5075528;28;20033;-37
2023/10/04 00:54:29;;;;;;;6.57;2.10;;;;;;;12.55;100.00;102499.22;5075132;28;20036;-36
2023/10/04 00:56:55;;;;;;;15.85;3.25;;;;;;;12.56;100.00;102492.75;5075399;28;20041;-36
2023/10/04 00:59:21;;;;;;;;;;;;;;;12.61;100.00;102498.38;5075728;28;20461;-36
2023/10/04 01:01:46;;;;;;;6.78;2.05;;;;;;;12.47;100.00;102490.41;5075361;28;19915;-36
2023/10/04 01:04:11;;;;;;;6.43;2.22;;;;;;;12.53;100.00;102495.00;5075066;28;20025;-36
2023/10/04 01:06:39;;;;;;;8.52;2.72;;;;;;;12.54;100.00;102508.41;5075240;28;20090;-36
2023/10/04 01:09:06;;;;;;;7.57;2.47;;;;;;;12.54;100.00;102511.13;5075203;28;20024;-36
2023/10/04 01:11:35;;;;;;;5.38;2.00;;;;;;;12.55;100.00;102507.34;5075103;28;20028;-36
2023/10/04 01:14:18;;;;;;;8.88;2.83;;;;;;;12.54;100.00;102497.53;5075943;28;20029;-36
2023/10/04 01:16:44;;;;;;;6.97;2.60;;;;;;;12.56;100.00;102503.59;5075554;28;20024;-36
2023/10/04 01:19:14;;;;;;;8.27;2.40;;;;;;;12.50;100.00;102495.44;5074717;28;20054;-36
2023/10/04 01:21:39;;;;;;;8.57;2.30;;;;;;;12.44;100.00;102488.09;5073928;28;20759;-36
2023/10/04 01:24:08;;;;;;;8.82;2.60;;;;;;;12.54;100.00;102507.53;5075775;28;20035;-36
2023/10/04 01:26:36;;;;;;;8.48;2.10;;;;;;;12.48;100.00;102509.19;5075369;28;20044;-36
2023/10/04 01:29:07;;;;;;;7.10;2.25;;;;;;;12.45;100.00;102500.63;5075079;28;20061;-36
2023/10/04 01:31:33;;;;;;;9.15;2.47;;;;;;;12.47;100.00;102506.69;5074775;28;20039;-36
2023/10/04 01:33:59;;;;;;;6.90;2.25;;;;;;;12.52;100.00;102510.47;5074994;28;20031;-36
2023/10/04 01:36:24;;;;;;;7.55;2.45;;;;;;;12.50;100.00;102517.97;5074530;28;20024;-36
2023/10/04 01:38:51;;;;;;;7.25;2.50;;;;;;;12.53;100.00;102506.69;5075221;28;20085;-36
2023/10/04 01:41:17;;;;;;;8.40;2.20;;;;;;;12.53;100.00;102517.56;5074522;28;20024;-36
2023/10/04 01:43:42;;;;;;;8.77;2.42;;;;;;;12.49;100.00;102500.03;5074233;28;20035;-36
2023/10/04 01:46:08;;;;;;;7.15;2.20;;;;;;;12.47;100.00;102510.22;5074675;28;20033;-36
2023/10/04 01:48:34;;;;;;;9.98;3.17;;;;;;;12.57;100.00;102524.25;5074730;28;20066;-37
2023/10/04 01:51:02;;;;;;;8.48;2.58;;;;;;;12.51;100.00;102513.38;5074306;28;20024;-36
2023/10/04 01:53:29;;;;;;;8.82;2.75;;;;;;;12.55;100.00;102520.91;5074894;28;20032;-36
2023/10/04 01:55:55;;;;;;;10.75;2.80;;;;;;;12.56;100.00;102530.72;5073993;28;20033;-36
2023/10/04 01:58:24;;;;;;;7.97;3.28;;;;;;;12.56;100.00;102522.59;5074613;28;20052;-36
2023/10/04 02:00:53;;;;;;;6.63;2.40;;;;;;;12.48;100.00;102511.06;5073949;28;20095;-36
2023/10/04 02:03:20;;;;;;;5.88;2.45;;;;;;;12.56;100.00;102519.03;5074139;28;20024;-36
2023/10/04 02:05:48;;;;;;;10.40;2.53;;;;;;;12.57;100.00;102518.00;5074011;28;20025;-36
2023/10/04 02:08:15;;;;;;;7.82;2.80;;;;;;;12.55;100.00;102510.06;5074076;28;20021;-36
2023/10/04 02:10:46;;;;;;;9.18;2.75;;;;;;;12.61;100.00;102516.56;5074241;28;20078;-36
2023/10/04 02:13:14;;;;;;;9.02;2.55;;;;;;;12.56;100.00;102511.72;5074244;28;20036;-36
2023/10/04 02:15:41;;;;;;;6.55;2.30;;;;;;;12.60;100.00;102513.00;5074154;28;20028;-36
2023/10/04 02:18:07;;;;;;;8.32;2.20;;;;;;;12.60;100.00;102514.88;5074422;28;20024;-36
2023/10/04 02:20:34;;;;;;;7.95;2.53;;;;;;;12.53;100.00;102506.69;5074391;28;20098;-36
2023/10/04 02:23:03;;;;;;;11.82;2.45;;;;;;;12.57;100.00;102518.81;5074415;28;20021;-36
2023/10/04 02:25:29;;;;;;;7.65;2.72;;;;;;;12.59;100.00;102516.75;5073496;28;20464;-36
2023/10/04 02:28:00;;;;;;;7.10;2.97;;;;;;;12.59;100.00;102518.59;5073828;28;20085;-36
2023/10/04 02:30:26;;;;;;;12.30;2.85;;;;;;;12.58;100.00;102506.91;5074589;28;20032;-36
2023/10/04 02:32:53;;;;;;;8.38;2.55;;;;;;;12.59;100.00;102500.47;5073523;28;20496;-37
2023/10/04 02:37:54;;;;;;;7.55;2.40;;;;;;;12.56;100.00;102510.91;5073905;28;20099;-36
2023/10/04 02:40:22;;;;;;;6.88;2.45;;;;;;;12.57;100.00;102518.81;5073882;28;20024;-36
2023/10/04 02:42:48;;;;;;;7.13;2.53;;;;;;;12.59;100.00;102522.19;5073897;28;20037;-36
2023/10/04 02:45:18;;;;;;;;;;;;;;;12.65;100.00;102523.25;5074240;28;20024;-36
2023/10/04 02:47:48;;;;;;;5.72;2.22;;;;;;;12.53;100.00;102508.59;5074410;28;19909;-36
2023/10/04 02:50:18;;;;;;;14.13;2.55;;;;;;;12.59;100.00;102519.47;5073457;28;20028;-36
2023/10/04 02:52:45;;;;;;;9.50;2.90;;;;;;;12.58;100.00;102530.50;5073307;28;20487;-36
2023/10/04 02:55:15;;;;;;;8.27;3.03;;;;;;;12.57;100.00;102520.72;5073215;28;20025;-36
2023/10/04 02:57:45;;;;;;;6.63;2.85;;;;;;;12.55;100.00;102520.91;5073180;28;20045;-36
2023/10/04 03:00:12;;;;;;;9.80;2.63;;;;;;;12.55;100.00;102531.78;5073386;28;20034;-36
2023/10/04 03:02:38;;;;;;;8.77;2.78;;;;;;;12.54;100.00;102530.09;5073118;28;20032;-36
2023/10/04 03:05:06;;;;;;;7.80;2.20;;;;;;;12.48;100.00;102514.63;5073367;28;20032;-36
2023/10/04 03:07:33;;;;;;;6.75;2.38;;;;;;;12.52;100.00;102529.47;5073915;28;20388;-36
2023/10/04 03:09:58;;;;;;;11.93;2.72;;;;;;;12.49;100.00;102531.72;5073283;28;20033;-36
2023/10/04 03:12:24;;;;;;;9.95;2.72;;;;;;;12.44;100.00;102524.19;5073578;28;20036;-36
2023/10/04 03:14:50;;;;;;;12.07;2.78;;;;;;;12.41;100.00;102524.63;5073282;28;20086;-36
2023/10/04 03:17:16;;;;;;;10.32;3.20;;;;;;;12.42;100.00;102539.03;5072019;28;20082;-36
2023/10/04 03:19:41;;;;;;;7.40;2.47;;;;;;;12.48;100.00;102551.75;5073301;28;20033;-36
2023/10/04 03:22:08;;;;;;;12.52;2.83;;;;;;;12.44;100.00;102545.06;5073613;28;20029;-36
2023/10/04 03:24:34;;;;;;;10.15;3.10;;;;;;;12.40;100.00;102546.53;5073191;28;20124;-36
2023/10/04 03:26:59;;;;;;;7.68;2.95;;;;;;;12.30;100.00;102545.03;5073958;28;20081;-36
2023/10/04 03:29:25;;;;;;;11.60;3.00;;;;;;;12.31;100.00;102548.56;5072893;28;20029;-36
2023/10/04 03:31:50;;;;;;;9.23;2.67;;;;;;;12.30;100.00;102553.16;5073707;28;20031;-36
2023/10/04 03:34:15;;;;;;;8.17;3.13;;;;;;;12.29;100.00;102553.34;5073190;28;20108;-36
2023/10/04 03:36:46;;;;;;;9.93;3.13;;;;;;;12.25;100.00;102552.06;5073003;28;20107;-36
2023/10/04 03:39:12;;;;;;;7.22;2.70;;;;;;;12.22;100.00;102547.91;5073889;28;20028;-36
2023/10/04 03:41:37;;;;;;;;;;;;;;;12.27;100.00;102541.88;5073980;28;20066;-36
2023/10/04 03:44:05;;;;;;;10.10;2.97;;;;;;;12.18;100.00;102537.66;5074882;28;19912;-36
2023/10/04 03:46:31;;;;;;;7.13;2.55;;;;;;;12.14;100.00;102529.06;5076772;28;20025;-36
2023/10/04 03:48:58;;;;;;;7.97;2.25;;;;;;;12.07;100.00;102539.88;5076749;28;20086;-36
2023/10/04 03:51:24;;;;;;;11.48;3.08;;;;;;;12.02;100.00;102531.50;5076934;28;20043;-36
2023/10/04 03:53:53;;;;;;;9.23;3.25;;;;;;;11.99;100.00;102547.34;5076636;28;20036;-36
2023/10/04 03:56:21;;;;;;;10.35;2.90;;;;;;;12.01;100.00;102539.84;5077024;28;20021;-36
2023/10/04 03:58:48;;;;;;;11.15;2.85;;;;;;;11.95;100.00;102540.63;5077331;28;20033;-36
2023/10/04 04:01:14;;;;;;;7.00;2.63;;;;;;;11.93;100.00;102532.69;5076453;28;20496;-36
2023/10/04 04:03:40;;;;;;;10.77;3.13;;;;;;;11.98;100.00;102540.25;5076794;28;20036;-36
2023/10/04 04:06:05;;;;;;;10.70;2.85;;;;;;;11.87;100.00;102533.50;5076106;28;20021;-36
2023/10/04 04:08:31;;;;;;;8.45;3.25;;;;;;;11.91;100.00;102544.75;5076927;28;20032;-36
2023/10/04 04:10:57;;;;;;;13.80;3.33;;;;;;;11.93;100.00;102542.72;5076591;28;20063;-36
2023/10/04 04:13:23;;;;;;;8.75;2.75;;;;;;;11.85;100.00;102530.13;5076823;28;20025;-36
2023/10/04 04:15:49;;;;;;;9.70;2.95;;;;;;;11.87;100.00;102544.34;5075908;28;20024;-36
2023/10/04 04:18:21;;;;;;;9.00;3.00;;;;;;;11.88;100.00;102537.88;5076183;28;20025;-36
2023/10/04 04:20:47;;;;;;;9.45;3.83;;;;;;;11.86;100.00;102539.97;5075914;28;20111;-36
2023/10/04 04:23:14;;;;;;;8.93;2.80;;;;;;;11.82;100.00;102538.69;5076718;28;20056;-36
2023/10/04 04:25:40;;;;;;;11.50;3.10;;;;;;;11.61;100.00;102512.41;5076561;28;20034;-36
2023/10/04 04:28:07;;;;;;;7.97;2.85;;;;;;;11.76;100.00;102542.13;5076027;28;20119;-36
2023/10/04 04:30:35;;;;;;;10.27;3.25;;;;;;;11.76;100.00;102539.41;5075617;28;20031;-36
2023/10/04 04:33:07;;;;;;;7.90;2.60;;;;;;;11.80;100.00;102527.16;5075909;28;20051;-36
2023/10/04 04:38:14;;;;;;;8.73;3.35;;;;;;;11.69;100.00;102525.84;5075828;28;20077;-36
2023/10/04 04:40:44;;;;;;;9.88;2.85;;;;;;;11.69;100.00;102530.41;5076309;28;20465;-36
2023/10/04 04:45:51;;;;;;;9.63;3.50;;;;;;;11.59;100.00;102526.19;5076042;28;20036;-36
2023/10/04 04:48:27;;;;;;;9.48;3.17;;;;;;;11.62;100.00;102533.09;5075630;28;20082;-36
2023/10/04 04:50:54;;;;;;;14.63;3.00;;;;;;;11.57;100.00;102524.72;5076167;28;20067;-36
2023/10/04 04:53:22;;;;;;;7.63;2.58;;;;;;;11.62;100.00;102524.97;5075256;28;20029;-36
2023/10/04 04:55:49;;;;;;;9.55;3.13;;;;;;;11.55;100.00;102521.34;5075893;28;20428;-36
2023/10/04 04:58:14;;;;;;;12.07;3.63;;;;;;;11.53;100.00;102513.44;5074993;28;20044;-36
2023/10/04 05:00:43;;;;;;;9.40;3.00;;;;;;;11.50;100.00;102519.22;5075430;28;20024;-36
2023/10/04 05:03:09;;;;;;;8.07;2.72;;;;;;;11.51;100.00;102529.03;5076144;28;20324;-36
2023/10/04 05:05:34;;;;;;;8.35;3.00;;;;;;;11.55;100.00;102532.19;5075578;28;20407;-36
2023/10/04 05:08:00;;;;;;;10.18;3.00;;;;;;;11.51;100.00;102545.28;5075515;28;20020;-36
2023/10/04 05:10:29;;;;;;;8.32;3.25;;;;;;;11.51;100.00;102549.88;5075121;28;20047;-36
2023/10/04 05:12:55;;;;;;;9.95;3.55;;;;;;;11.47;100.00;102538.59;5075047;28;20071;-36
2023/10/04 05:15:32;;;;;;;10.25;3.08;;;;;;;11.41;100.00;102547.47;5074742;28;20028;-36
2023/10/04 05:18:10;;;;;;;11.95;3.28;;;;;;;11.50;100.00;102576.13;5074905;28;20060;-36
2023/10/04 05:20:36;;;;;;;10.65;3.33;;;;;;;11.39;100.00;102571.22;5075143;28;20025;-36
2023/10/04 05:23:03;;;;;;;10.80;3.20;;;;;;;11.42;100.00;102578.97;5075768;28;20103;-36
2023/10/04 05:25:28;;;;;;;8.90;2.90;;;;;;;11.37;100.00;102565.19;5074499;28;20501;-36
2023/10/04 05:28:03;;;;;;;10.93;3.45;;;;;;;11.39;100.00;102576.66;5075052;28;20107;-36
2023/10/04 05:30:29;;;;;;;6.95;2.95;;;;;;;11.37;100.00;102576.03;5074388;28;20058;-36
2023/10/04 05:32:55;;;;;;;;;;;;;;;11.46;100.00;102565.88;5075383;28;20082;-36
2023/10/04 05:35:21;;;;;;;11.20;3.58;;;;;;;11.38;100.00;102569.56;5074889;28;20307;-36
2023/10/04 05:37:47;;;;;;;11.18;2.85;;;;;;;11.36;100.00;102579.72;5075074;28;20073;-36
2023/10/04 05:40:27;;;;;;;13.95;3.15;;;;;;;11.33;100.00;102582.84;5074288;28;20025;-36
2023/10/04 05:42:53;;;;;;;9.02;2.75;;;;;;;11.25;100.00;102569.44;5074706;28;20087;-35
2023/10/04 05:45:23;;;;;;;15.25;4.65;;;;;;;11.27;100.00;102575.47;5074443;28;20025;-36
2023/10/04 05:47:50;;;;;;;13.02;3.50;;;;;;;11.30;100.00;102585.94;5074701;28;20043;-36
2023/10/04 05:50:22;;;;;;;8.07;2.70;;;;;;;11.29;100.00;102590.50;5074083;28;20483;-36
2023/10/04 05:52:49;;;;;;;11.30;3.33;;;;;;;11.18;100.00;102580.22;5074911;28;20028;-35
2023/10/04 05:55:19;;;;;;;19.10;3.63;;;;;;;11.25;100.00;102600.06;5075031;28;20052;-36
2023/10/04 05:57:46;;;;;;;9.18;3.08;;;;;;;11.20;100.00;102602.50;5074857;28;20044;-36
2023/10/04 06:00:37;;;;;;;8.95;2.88;;;;;;;11.27;100.00;102607.97;5074160;28;20029;-36
2023/10/04 06:03:06;;;;;;;8.75;2.45;;;;;;;11.16;100.00;102590.38;5073900;28;20472;-36
2023/10/04 06:05:34;;;;;;;9.13;2.83;;;;;;;11.30;100.00;102610.31;5074594;28;20480;-36
2023/10/04 06:08:03;;;;;;;11.77;3.25;;;;;;;11.19;100.00;102592.72;5073536;28;20481;-36
2023/10/04 06:10:28;;;;;;;10.60;2.88;;;;;;;11.20;100.00;102609.78;5073969;28;20033;-36
2023/10/04 06:12:55;;;;;;;11.17;3.27;;;;;;;11.22;100.00;102610.41;5074373;28;20362;-35
2023/10/04 06:15:21;;;;;;;8.88;2.72;;;;;;;11.21;100.00;102612.28;5073899;28;20035;-36
2023/10/04 06:17:47;;;;;;;11.77;3.50;;;;;;;11.11;100.00;102594.69;5074131;28;20373;-36
2023/10/04 06:20:23;;;;;;;11.00;3.60;;;;;;;11.20;100.00;102616.03;5073515;28;20035;-36
2023/10/04 06:22:54;;;;;;;11.10;3.35;;;;;;;11.25;100.00;102616.31;5074688;28;20025;-36
2023/10/04 06:25:21;;;;;;;11.48;2.95;;;;;;;11.17;100.00;102621.81;5073815;28;20024;-36
2023/10/04 06:27:51;;;;;;;12.57;3.35;;;;;;;11.24;100.00;102619.22;5074078;28;20024;-36
2023/10/04 06:30:22;;;;;;;9.52;2.72;;;;;;;11.25;100.00;102627.13;5073684;28;20028;-36
2023/10/04 06:32:52;;;;;;;9.45;3.38;;;;;;;11.29;100.00;102627.59;5074248;28;20123;-35
2023/10/04 06:35:22;;;;;;;13.30;4.22;;;;;;;11.30;100.00;102627.41;5073664;28;20024;-36
2023/10/04 06:37:49;;;;;;;9.73;3.17;;;;;;;11.22;100.00;102616.66;5073566;28;20103;-36
2023/10/04 06:40:19;;;;;;;11.48;3.53;;;;;;;11.33;100.00;102626.19;5073521;28;20032;-36
2023/10/04 06:42:48;;;;;;;9.00;3.25;;;;;;;11.44;100.00;102630.25;5073547;28;20477;-35
2023/10/04 06:45:15;;;;;;;9.35;3.83;;;;;;;11.44;100.00;102641.09;5073548;28;20032;-36
2023/10/04 06:47:44;;;;;;;11.57;3.33;;;;;;;11.36;100.00;102631.19;5073539;28;20028;-36
2023/10/04 06:50:14;;;;;;;7.82;2.83;;;;;;;11.42;100.00;102638.56;5073710;28;20384;-35
2023/10/04 06:52:43;;;;;;;9.02;2.83;;;;;;;11.53;100.00;102635.34;5073449;28;20059;-35
2023/10/04 06:55:11;;;;;;;9.13;3.55;;;;;;;11.49;100.00;102633.22;5073374;28;20380;-36
2023/10/04 06:57:36;;;;;;;11.68;3.30;;;;;;;11.60;100.00;102632.69;5073851;28;20063;-36
2023/10/04 07:00:12;;;;;;;11.10;2.90;;;;;;;11.64;100.00;102630.44;5073463;28;20480;-35
2023/10/04 07:02:40;;;;;;;7.88;2.95;;;;;;;11.71;100.00;102636.75;5073769;28;20067;-36
2023/10/04 07:05:06;;;;;;;9.95;3.33;;;;;;;11.73;100.00;102646.38;5072969;28;20028;-36
2023/10/04 07:07:31;;;;;;;13.77;3.55;;;;;;;11.79;100.00;102639.31;5073103;28;20455;-36
2023/10/04 07:09:57;;;;;;;8.60;3.17;;;;;;;11.92;100.00;102647.59;5073296;28;20086;-36
2023/10/04 07:12:22;;;;;;;10.27;3.00;;;;;;;11.98;100.00;102646.81;5073631;28;20024;-36
2023/10/04 07:14:49;;;;;;;11.18;3.03;;;;;;;11.96;100.00;102637.22;5073241;28;20051;-36
2023/10/04 07:17:19;;;;;;;14.20;4.00;;;;;;;12.08;100.00;102650.03;5073772;28;20108;-36
2023/10/04 07:19:44;;;;;;;9.65;3.42;;;;;;;12.08;100.00;102630.19;5075741;28;20078;-36
2023/10/04 07:22:09;;;;;;;11.03;3.57;;;;;;;12.21;100.00;102643.88;5077855;28;20032;-36
2023/10/04 07:24:37;;;;;;;12.70;3.67;;;;;;;12.25;100.00;102647.88;5078012;28;20274;-36
2023/10/04 07:27:02;;;;;;;14.02;3.90;;;;;;;12.32;100.00;102653.31;5077136;28;20255;-36
2023/10/04 07:29:29;;;;;;;11.30;3.30;;;;;;;12.29;100.00;102638.25;5076724;28;20031;-36
2023/10/04 07:31:56;;;;;;;8.77;3.38;;;;;;;12.42;100.00;102650.25;5076656;28;20032;-36
2023/10/04 07:34:23;;;;;;;12.80;4.05;;;;;;;12.48;100.00;102653.00;5076565;28;20031;-36
2023/10/04 07:36:51;;;;;;;10.43;3.72;;;;;;;12.52;100.00;102656.16;5076763;28;20040;-36
2023/10/04 07:39:16;;;;;;;8.95;3.17;;;;;;;12.61;100.00;102654.97;5076697;28;20053;-36
2023/10/04 07:41:42;;;;;;;14.02;3.88;;;;;;;12.68;100.00;102660.41;5076866;28;20025;-36
2023/10/04 07:44:09;;;;;;;11.47;3.20;;;;;;;12.70;100.00;102658.34;5077117;28;20035;-36
2023/10/04 07:46:34;;;;;;;12.77;3.83;;;;;;;12.66;100.00;102651.66;5076797;28;20258;-36
2023/10/04 07:49:01;;;;;;;13.77;3.65;;;;;;;12.72;100.00;102653.53;5077306;28;20025;-36
2023/10/04 07:51:26;;;;;;;8.07;3.22;;;;;;;12.86;100.00;102674.28;5076406;28;20028;-36
2023/10/04 07:53:52;;;;;;;9.00;3.00;;;;;;;12.91;100.00;102674.53;5077463;28;20039;-36
2023/10/04 07:56:18;;;;;;;10.23;3.70;;;;;;;12.98;100.00;102678.13;5076558;28;20362;-36
2023/10/04 07:58:43;;;;;;;10.63;3.08;;;;;;;13.03;100.00;102675.63;5077164;28;20048;-36
2023/10/04 08:01:09;;;;;;;10.83;3.07;;;;;;;13.16;100.00;102680.25;5076573;28;20021;-36
2023/10/04 08:03:34;;;;;;;10.93;3.42;;;;;;;13.26;100.00;102680.75;5076814;28;20255;-36
2023/10/04 08:05:59;;;;;;;11.73;4.15;;;;;;;13.32;100.00;102670.94;5076625;28;20469;-36
2023/10/04 08:08:25;;;;;;;10.88;3.35;;;;;;;13.44;100.00;102674.75;5076390;28;20481;-36
2023/10/04 08:10:50;;;;;;;;;;;;;;;13.57;100.00;102679.38;5076785;28;20024;-36
2023/10/04 08:13:16;;;;;;;6.82;3.08;;;;;;;13.54;100.00;102680.63;5076269;28;19915;-36
2023/10/04 08:15:41;;;;;;;;;;;;;;;13.64;100.00;102683.78;5076678;28;20032;-36
2023/10/04 08:18:07;;;;;;;10.20;4.15;;;;;;;13.54;100.00;102672.47;5076127;28;19924;-36
2023/10/04 08:20:36;;;;;;;10.48;3.38;;;;;;;13.59;100.00;102690.88;5076187;28;20081;-36
2023/10/04 08:23:04;;;;;;;11.45;3.70;;;;;;;13.59;100.00;102688.97;5076687;28;20377;-36
2023/10/04 08:25:32;;;;;;;9.48;3.70;;;;;;;13.49;100.00;102672.25;5076026;28;20024;-36
2023/10/04 08:27:57;;;;;;;9.70;2.80;;;;;;;13.56;100.00;102692.09;5076254;28;20058;-35
2023/10/04 08:30:23;;;;;;;8.35;3.25;;;;;;;13.57;100.00;102693.81;5076044;28;20029;-36
2023/10/04 08:32:50;;;;;;;8.88;3.28;;;;;;;13.63;100.00;102695.69;5076531;28;20032;-36
2023/10/04 08:35:24;;;;;;;9.70;3.13;;;;;;;13.64;100.00;102696.53;5075806;28;20074;-36
2023/10/04 08:37:56;;;;;;;11.93;3.55;;;;;;;13.73;100.00;102708.06;5075662;28;20020;-36
2023/10/04 08:40:26;;;;;;;9.10;3.03;;;;;;;13.81;100.00;102699.66;5075683;28;20108;-36
2023/10/04 08:42:52;;;;;;;10.18;3.40;;;;;;;13.84;100.00;102694.66;5076708;28;20029;-36
2023/10/04 08:45:18;;;;;;;10.52;3.42;;;;;;;13.95;100.00;102706.81;5075639;28;20119;-36
2023/10/04 08:47:51;;;;;;;10.68;3.20;;;;;;;13.97;100.00;102699.28;5075443;28;20033;-36
2023/10/04 08:50:29;;;;;;;10.65;3.20;;;;;;;14.00;100.00;102704.28;5075649;28;20021;-36
2023/10/04 08:53:03;;;;;;;9.43;3.20;;;;;;;13.96;100.00;102694.03;5076086;28;20086;-36
2023/10/04 08:55:36;;;;;;;8.13;3.05;;;;;;;14.00;100.00;102698.03;5075778;28;20457;-36
2023/10/04 08:58:02;;;;;;;12.55;3.53;;;;;;;14.01;100.00;102695.13;5076092;28;20055;-36
2023/10/04 09:00:29;;;;;;;11.43;3.58;;;;;;;14.07;100.00;102693.44;5075370;28;20056;-36
2023/10/04 09:02:56;;;;;;;8.57;2.72;;;;;;;14.17;100.00;102705.56;5075369;28;20024;-36
2023/10/04 09:05:23;;;;;;;11.52;3.80;;;;;;;14.26;100.00;102697.19;5075293;28;20025;-36
2023/10/04 09:07:51;;;;;;;9.07;3.38;;;;;;;14.39;100.00;102705.31;5075566;28;20096;-36
2023/10/04 09:10:18;;;;;;;8.68;2.78;;;;;;;14.38;100.00;102701.78;5075184;28;20037;-36
2023/10/04 09:12:47;;;;;;;10.38;2.88;;;;;;;14.39;100.00;102691.72;5075167;28;20028;-36
2023/10/04 09:15:13;;;;;;;11.63;3.30;;;;;;;14.54;100.00;102694.25;5075391;28;20032;-36
2023/10/04 09:17:47;;;;;;;9.85;3.47;;;;;;;14.57;100.00;102705.53;5075581;28;20028;-36
2023/10/04 09:20:16;;;;;;;9.00;2.75;;;;;;;14.60;100.00;102696.13;5074979;28;20145;-36
2023/10/04 09:22:43;;;;;;;8.52;3.05;;;;;;;14.59;100.00;102697.16;5075560;28;20082;-36
2023/10/04 09:25:09;;;;;;;8.57;3.90;;;;;;;14.61;100.00;102693.19;5075175;28;20024;-36
2023/10/04 09:27:36;;;;;;;14.82;3.92;;;;;;;14.65;100.00;102683.53;5075728;28;20034;-36
2023/10/04 09:30:20;;;;;;;12.07;4.00;;;;;;;14.72;100.00;102675.34;5074481;28;20025;-36
2023/10/04 09:32:46;;;;;;;9.70;3.08;;;;;;;14.86;100.00;102692.50;5075625;28;20112;-36
2023/10/04 09:35:11;;;;;;;12.13;4.03;;;;;;;14.93;100.00;102679.66;5074962;28;20103;-36
2023/10/04 09:37:39;;;;;;;9.00;3.45;;;;;;;15.01;100.00;102686.78;5075507;28;20433;-36
2023/10/04 09:40:13;;;;;;;8.80;2.90;;;;;;;15.04;100.00;102680.91;5074401;28;20126;-36
2023/10/04 09:42:53;;;;;;;11.40;4.05;;;;;;;15.05;100.00;102691.59;5073746;28;20095;-36
2023/10/04 09:45:24;;;;;;;12.23;5.05;;;;;;;15.06;100.00;102687.78;5074553;28;20032;-36
2023/10/04 09:47:51;;;;;;;10.52;3.42;;;;;;;15.14;100.00;102687.56;5075270;28;20108;-36
2023/10/04 09:50:23;;;;;;;10.00;3.72;;;;;;;15.16;100.00;102681.88;5074675;28;20206;-36
2023/10/04 09:52:49;;;;;;;6.97;3.08;;;;;;;15.29;100.00;102683.72;5074121;28;20033;-36
2023/10/04 09:55:15;;;;;;;14.02;3.58;;;;;;;15.36;100.00;102684.50;5074754;28;20028;-36
2023/10/04 09:57:43;;;;;;;10.10;3.45;;;;;;;15.44;100.00;102684.25;5074451;28;20076;-36
2023/10/04 10:00:17;;;;;;;9.60;3.90;;;;;;;15.37;100.00;102667.94;5074190;28;20119;-36
2023/10/04 10:02:48;;;;;;;11.95;4.20;;;;;;;15.49;100.00;102684.44;5074491;28;20028;-36
2023/10/04 10:05:26;;;;;;;9.23;3.85;;;;;;;15.58;100.00;102685.00;5074172;28;20025;-36
2023/10/04 10:07:53;;;;;;;7.68;3.70;;;;;;;15.61;100.00;102695.47;5074089;28;20032;-36
2023/10/04 10:10:20;;;;;;;9.65;4.15;;;;;;;15.63;100.00;102702.41;5073659;28;20492;-36
2023/10/04 10:12:49;;;;;;;14.18;4.65;;;;;;;15.67;100.00;102711.84;5074023;28;20025;-36
2023/10/04 10:15:18;;;;;;;10.30;3.95;;;;;;;15.74;100.00;102713.69;5073869;28;20534;-36
2023/10/04 10:17:46;;;;;;;9.85;3.78;;;;;;;15.78;100.00;102717.63;5074435;28;20079;-36
2023/10/04 10:20:12;;;;;;;11.30;4.20;;;;;;;15.74;100.00;102716.41;5073866;28;20070;-36
2023/10/04 10:22:59;;;;;;;9.95;3.78;;;;;;;15.83;100.00;102710.47;5074455;28;20424;-36
2023/10/04 10:25:32;;;;;;;8.40;2.90;;;;;;;15.91;100.00;102702.03;5073778;28;20039;-36
2023/10/04 10:28:04;;;;;;;6.72;3.10;;;;;;;16.02;100.00;102692.28;5074648;28;20106;-36
2023/10/04 10:30:33;;;;;;;10.23;3.65;;;;;;;16.14;100.00;102701.41;5073790;28;20113;-36
2023/10/04 10:32:59;;;;;;;9.27;3.65;;;;;;;16.08;100.00;102696.84;5074071;28;20035;-36
2023/10/04 10:35:52;;;;;;;11.23;3.80;;;;;;;16.08;100.00;102696.84;5073666;28;20035;-36
2023/10/04 10:38:43;;;;;;;8.02;3.78;;;;;;;16.00;100.00;102699.00;5073279;28;20069;-36
2023/10/04 10:41:29;;;;;;;7.90;3.30;;;;;;;15.95;100.00;102700.50;5073620;28;20077;-36
2023/10/04 10:44:19;;;;;;;9.15;3.67;;;;;;;16.04;100.00;102698.34;5073914;28;20029;-36
2023/10/04 10:47:07;;;;;;;9.25;3.63;;;;;;;16.21;100.00;102699.47;5073517;28;20067;-36
2023/10/04 10:49:49;;;;;;;10.00;3.60;;;;;;;16.31;100.00;102695.38;5073526;28;20033;-36
2023/10/04 10:52:38;;;;;;;9.13;3.70;;;;;;;16.31;100.00;102695.38;5074197;28;20032;-36
2023/10/04 10:55:05;;;;;;;7.78;3.28;;;;;;;16.39;100.00;102698.63;5073545;28;20029;-36
2023/10/04 10:57:32;;;;;;;8.30;3.78;;;;;;;16.39;100.00;102697.81;5073238;28;20067;-36
2023/10/04 11:00:11;;;;;;;12.50;3.83;;;;;;;16.41;100.00;102691.06;5073388;28;20032;-36
2023/10/04 11:02:37;;;;;;;9.55;3.58;;;;;;;16.50;100.00;102685.34;5073434;28;20032;-36
2023/10/04 11:05:02;;;;;;;;;;;;;;;16.65;100.00;102685.78;5074396;28;20438;-36
2023/10/04 11:07:28;;;;;;;9.68;3.80;;;;;;;16.66;100.00;102679.25;5073926;28;20276;-36
2023/10/04 11:09:54;;;;;;;;;;;;;;;16.84;100.00;102678.47;5073815;28;20025;-36
2023/10/04 11:12:21;;;;;;;9.07;3.15;;;;;;;16.74;100.00;102684.47;5073036;28;19952;-36
2023/10/04 11:14:47;;;;;;;10.00;3.30;;;;;;;16.78;100.00;102674.72;5073302;28;20161;-37
2023/10/04 11:17:16;;;;;;;;;;;;;;;16.81;100.00;102663.34;5074023;28;20032;-36
2023/10/04 11:19:41;;;;;;;8.27;3.33;;;;;;;16.63;100.00;102658.69;5073237;28;19912;-36
2023/10/04 11:22:08;;;;;;;;;;;;;;;16.78;100.00;102669.25;5072589;28;20040;-36
2023/10/04 11:24:35;;;;;;;9.25;3.47;;;;;;;16.60;100.00;102661.91;5073221;28;20146;-36
2023/10/04 11:27:01;;;;;;;6.25;3.05;;;;;;;16.60;100.00;102655.59;5073219;28;20377;-36
2023/10/04 11:29:27;;;;;;;;;;;;;;;16.70;100.00;102656.72;5073323;28;20024;-36